Time;durP1;ratioP1;P1;durP2;ratioP2;P2;SDS_P1;SDS_P2;PMS_P1;PMS_P2;Temp;Humidity;BMP_temperature;BMP_pressure;BME280_temperature;BME280_humidity;BME280_pressure;Samples;Min_cycle;Max_cycle;Signal;HPM_P1;HPM_P2
2022/04/22 00:01:16;;;;;;;107.70;26.57;;;;;;;;;;4951204;28;20246;-70
2022/04/22 00:03:42;;;;;;;106.37;26.07;;;;;;;;;;4950421;28;20672;-69
2022/04/22 00:06:08;;;;;;;120.50;31.37;;;;;;;;;;4936451;28;20194;-69
2022/04/22 00:08:34;;;;;;;72.70;18.53;;;;;;;;;;4954966;28;20321;-69
2022/04/22 00:13:45;;;;;;;75.07;18.30;;;;;;;;;;4959912;28;20221;-69
2022/04/22 00:16:11;;;;;;;115.03;27.77;;;;;;;;;;4953567;28;20210;-69
2022/04/22 00:18:37;;;;;;;83.17;19.47;;;;;;;;;;4954480;28;20198;-69
2022/04/22 00:21:03;;;;;;;118.30;28.90;;;;;;;;;;4957046;28;20198;-69
2022/04/22 00:23:29;;;;;;;70.27;16.60;;;;;;;;;;4956393;28;20808;-69
2022/04/22 00:25:55;;;;;;;117.40;27.67;;;;;;;;;;4951710;28;20566;-69
2022/04/22 00:28:21;;;;;;;100.40;21.70;;;;;;;;;;4950969;28;20245;-69
2022/04/22 00:30:48;;;;;;;126.27;27.97;;;;;;;;;;4951314;28;20218;-68
2022/04/22 00:33:14;;;;;;;47.23;11.17;;;;;;;;;;4957714;28;20213;-69
2022/04/22 00:35:40;;;;;;;54.43;12.57;;;;;;;;;;4958280;28;20295;-69
2022/04/22 00:38:06;;;;;;;123.07;28.67;;;;;;;;;;4958508;28;20674;-69
2022/04/22 00:40:32;;;;;;;112.13;24.40;;;;;;;;;;4954694;28;20222;-69
2022/04/22 00:42:59;;;;;;;186.13;44.87;;;;;;;;;;4934116;28;20231;-69
2022/04/22 00:45:25;;;;;;;44.70;10.50;;;;;;;;;;4955154;28;21480;-69
2022/04/22 00:47:51;;;;;;;53.30;11.87;;;;;;;;;;4960573;28;20230;-69
2022/04/22 00:50:17;;;;;;;167.20;35.40;;;;;;;;;;4951000;28;20230;-70
2022/04/22 00:52:43;;;;;;;41.67;9.20;;;;;;;;;;4961373;28;20313;-69
2022/04/22 00:55:10;;;;;;;131.67;27.57;;;;;;;;;;4957298;28;20297;-69
2022/04/22 00:57:36;;;;;;;46.77;10.60;;;;;;;;;;4959092;28;20186;-69
2022/04/22 01:00:03;;;;;;;171.33;35.93;;;;;;;;;;4958910;28;20217;-69
2022/04/22 01:02:29;;;;;;;80.10;17.03;;;;;;;;;;4940234;28;20242;-70
2022/04/22 01:10:25;;;;;;;98.37;20.30;;;;;;;;;;4956796;28;20229;-69
2022/04/22 01:12:51;;;;;;;98.87;20.93;;;;;;;;;;4951722;28;20763;-69
2022/04/22 01:15:17;;;;;;;69.37;14.57;;;;;;;;;;4952972;28;20191;-69
2022/04/22 01:17:44;;;;;;;68.60;14.60;;;;;;;;;;4951549;28;20677;-70
2022/04/22 01:20:10;;;;;;;138.80;30.13;;;;;;;;;;4955995;28;20210;-69
2022/04/22 01:22:36;;;;;;;40.37;8.87;;;;;;;;;;4956301;28;20634;-69
2022/04/22 01:25:03;;;;;;;128.70;29.63;;;;;;;;;;4954373;28;20280;-69
2022/04/22 01:27:29;;;;;;;42.40;9.70;;;;;;;;;;4954575;28;20209;-69
2022/04/22 01:29:56;;;;;;;38.90;9.33;;;;;;;;;;4961860;28;20202;-69
2022/04/22 01:32:23;;;;;;;65.90;13.47;;;;;;;;;;4956624;28;20305;-70
2022/04/22 01:34:49;;;;;;;41.17;8.77;;;;;;;;;;4956102;28;20214;-69
2022/04/22 01:37:15;;;;;;;56.87;12.00;;;;;;;;;;4959464;28;20206;-69
2022/04/22 01:39:41;;;;;;;71.97;15.23;;;;;;;;;;4958495;28;20194;-69
2022/04/22 01:42:07;;;;;;;102.73;21.10;;;;;;;;;;4956444;28;20560;-69
2022/04/22 01:44:35;;;;;;;58.37;12.33;;;;;;;;;;4951130;28;20222;-69
2022/04/22 01:47:01;;;;;;;79.23;19.37;;;;;;;;;;4959716;28;20220;-68
2022/04/22 01:49:27;;;;;;;113.43;22.77;;;;;;;;;;4954517;28;20222;-68
2022/04/22 01:51:54;;;;;;;61.83;13.40;;;;;;;;;;4955535;28;20268;-68
2022/04/22 01:54:20;;;;;;;110.00;22.63;;;;;;;;;;4953854;28;20179;-68
2022/04/22 01:56:46;;;;;;;39.57;8.70;;;;;;;;;;4956732;28;20218;-68
2022/04/22 01:59:12;;;;;;;131.83;26.87;;;;;;;;;;4959144;28;20296;-69
2022/04/22 02:01:38;;;;;;;55.30;11.80;;;;;;;;;;4956673;28;20972;-69
2022/04/22 02:04:04;;;;;;;150.70;32.83;;;;;;;;;;4953859;28;20222;-69
2022/04/22 02:06:30;;;;;;;73.33;15.60;;;;;;;;;;4963180;28;20668;-68
2022/04/22 02:08:57;;;;;;;89.07;19.43;;;;;;;;;;4963173;28;20317;-69
2022/04/22 02:11:22;;;;;;;106.07;21.40;;;;;;;;;;4952522;28;20233;-68
2022/04/22 02:13:48;;;;;;;131.20;27.07;;;;;;;;;;4934798;28;20266;-69
2022/04/22 02:16:14;;;;;;;107.63;22.20;;;;;;;;;;4936764;28;20221;-69
2022/04/22 02:18:42;;;;;;;85.40;17.77;;;;;;;;;;4957606;28;20213;-69
2022/04/22 02:21:09;;;;;;;86.87;21.60;;;;;;;;;;4961471;28;20202;-68
2022/04/22 02:23:35;;;;;;;105.17;22.20;;;;;;;;;;4961671;28;20221;-69
2022/04/22 02:26:01;;;;;;;87.20;18.30;;;;;;;;;;4959960;28;20218;-68
2022/04/22 02:28:33;;;;;;;41.20;8.83;;;;;;;;;;4939192;28;20724;-68
2022/04/22 02:31:04;;;;;;;84.90;18.50;;;;;;;;;;4954779;28;20214;-69
2022/04/22 02:33:31;;;;;;;88.53;18.37;;;;;;;;;;4940227;28;20190;-69
2022/04/22 02:35:57;;;;;;;118.80;25.23;;;;;;;;;;4955956;28;22170;-69
2022/04/22 02:38:23;;;;;;;73.93;15.87;;;;;;;;;;4959766;28;20283;-69
2022/04/22 02:46:18;;;;;;;81.67;16.60;;;;;;;;;;4959636;28;20264;-69
2022/04/22 02:48:44;;;;;;;77.03;16.77;;;;;;;;;;4959426;28;20646;-69
2022/04/22 02:51:10;;;;;;;115.77;23.17;;;;;;;;;;4955819;28;20282;-69
2022/04/22 02:53:36;;;;;;;39.57;8.40;;;;;;;;;;4958259;28;20241;-68
2022/04/22 02:56:02;;;;;;;104.77;21.33;;;;;;;;;;4959356;28;20297;-69
2022/04/22 02:58:28;;;;;;;95.80;19.17;;;;;;;;;;4959418;28;20301;-68
2022/04/22 03:00:54;;;;;;;39.30;8.37;;;;;;;;;;4958628;28;20249;-69
2022/04/22 03:03:20;;;;;;;59.50;12.60;;;;;;;;;;4965662;28;20604;-69
2022/04/22 03:05:46;;;;;;;43.67;9.13;;;;;;;;;;4956095;28;20272;-69
2022/04/22 03:08:11;;;;;;;160.17;34.00;;;;;;;;;;4957677;28;20305;-69
2022/04/22 03:10:37;;;;;;;79.60;16.13;;;;;;;;;;4939043;28;20296;-69
2022/04/22 03:13:06;;;;;;;96.77;20.90;;;;;;;;;;4938535;28;20236;-69
2022/04/22 03:15:35;;;;;;;102.53;20.70;;;;;;;;;;4955420;28;20194;-69
2022/04/22 03:18:01;;;;;;;135.27;27.87;;;;;;;;;;4952982;28;20179;-69
2022/04/22 03:20:27;;;;;;;101.00;19.77;;;;;;;;;;4958971;28;20225;-69
2022/04/22 03:22:53;;;;;;;41.57;8.60;;;;;;;;;;4956315;28;20668;-69
2022/04/22 03:25:20;;;;;;;101.67;20.40;;;;;;;;;;4942537;28;20218;-69
2022/04/22 03:27:46;;;;;;;79.10;16.00;;;;;;;;;;4942951;28;20218;-69
2022/04/22 03:30:12;;;;;;;129.77;25.40;;;;;;;;;;4953355;28;20217;-69
2022/04/22 03:32:38;;;;;;;93.07;18.17;;;;;;;;;;4954903;28;20211;-70
2022/04/22 03:35:04;;;;;;;137.60;27.93;;;;;;;;;;4952761;28;20265;-69
2022/04/22 03:37:31;;;;;;;97.80;19.33;;;;;;;;;;4949767;28;21308;-69
2022/04/22 03:39:57;;;;;;;107.20;20.83;;;;;;;;;;4958536;28;20246;-69
2022/04/22 03:42:23;;;;;;;78.03;15.70;;;;;;;;;;4953942;28;20636;-69
2022/04/22 03:44:49;;;;;;;53.63;11.23;;;;;;;;;;4954548;28;20223;-69
2022/04/22 03:47:15;;;;;;;65.57;12.73;;;;;;;;;;4956594;28;20214;-69
2022/04/22 03:49:41;;;;;;;120.30;21.97;;;;;;;;;;4958760;28;20224;-69
2022/04/22 03:52:07;;;;;;;138.83;26.23;;;;;;;;;;4948932;28;20333;-69
2022/04/22 03:54:33;;;;;;;62.70;12.50;;;;;;;;;;4955987;28;20197;-69
2022/04/22 03:59:44;;;;;;;47.63;9.37;;;;;;;;;;4964302;28;20291;-69
2022/04/22 04:02:09;;;;;;;124.30;23.73;;;;;;;;;;4952737;28;20375;-69
2022/04/22 04:04:35;;;;;;;72.27;13.80;;;;;;;;;;4937496;28;20222;-69
2022/04/22 04:07:01;;;;;;;71.90;15.23;;;;;;;;;;4942072;28;20700;-69
2022/04/22 04:17:41;;;;;;;123.80;22.03;;;;;;;;;;4961255;28;20309;-69
2022/04/22 04:25:41;;;;;;;98.73;17.57;;;;;;;;;;4955472;28;23131;-70
2022/04/22 04:28:10;;;;;;;77.50;14.23;;;;;;;;;;4953799;28;20584;-69
2022/04/22 04:30:37;;;;;;;67.57;18.30;;;;;;;;;;4960754;28;20325;-69
2022/04/22 04:33:04;;;;;;;122.20;32.90;;;;;;;;;;4954231;28;20269;-69
2022/04/22 04:35:30;;;;;;;71.47;12.03;;;;;;;;;;4961390;28;20683;-70
2022/04/22 04:37:56;;;;;;;54.90;9.37;;;;;;;;;;4958924;28;20248;-70
2022/04/22 04:40:21;;;;;;;68.83;11.27;;;;;;;;;;4957452;28;20308;-69
2022/04/22 04:42:47;;;;;;;39.70;6.77;;;;;;;;;;4959108;28;20226;-69
2022/04/22 04:45:13;;;;;;;32.03;5.57;;;;;;;;;;4959410;28;20202;-69
2022/04/22 04:47:43;;;;;;;55.70;9.13;;;;;;;;;;4959956;28;20944;-69
2022/04/22 04:50:09;;;;;;;129.70;19.70;;;;;;;;;;4937612;28;20225;-70
2022/04/22 04:52:37;;;;;;;71.23;11.33;;;;;;;;;;4948451;28;20230;-70
2022/04/22 04:55:03;;;;;;;106.17;16.77;;;;;;;;;;4953952;28;20218;-70
2022/04/22 04:57:29;;;;;;;60.43;9.87;;;;;;;;;;4960283;28;20206;-70
2022/04/22 04:59:55;;;;;;;92.80;14.87;;;;;;;;;;4954168;28;20207;-70
2022/04/22 05:02:21;;;;;;;100.93;15.50;;;;;;;;;;4958357;28;20588;-70
2022/04/22 05:04:46;;;;;;;96.73;14.83;;;;;;;;;;4950225;28;20596;-70
2022/04/22 05:07:12;;;;;;;65.77;10.77;;;;;;;;;;4950060;28;20219;-69
2022/04/22 05:09:38;;;;;;;63.90;10.53;;;;;;;;;;4952813;28;20194;-69
2022/04/22 05:12:05;;;;;;;107.73;17.63;;;;;;;;;;4956977;28;20217;-70
2022/04/22 05:14:30;;;;;;;111.73;16.97;;;;;;;;;;4949386;28;20217;-69
2022/04/22 05:16:56;;;;;;;62.80;10.63;;;;;;;;;;4956289;28;20932;-69
2022/04/22 05:19:22;;;;;;;103.93;15.83;;;;;;;;;;4951564;28;20229;-71
2022/04/22 05:21:49;;;;;;;65.90;10.67;;;;;;;;;;4937320;28;20218;-67
2022/04/22 05:24:15;;;;;;;55.63;9.00;;;;;;;;;;4937879;28;20206;-67
2022/04/22 05:26:41;;;;;;;79.37;12.63;;;;;;;;;;4957569;28;20217;-66
2022/04/22 05:32:36;;;;;;;101.23;15.70;;;;;;;;;;4962630;28;20210;-65
2022/04/22 05:34:40;;;;;;;76.20;12.10;;;;;;;;;;4954862;28;20237;-69
2022/04/22 05:37:06;;;;;;;117.40;18.73;;;;;;;;;;4941554;28;20209;-64
2022/04/22 05:39:32;;;;;;;103.03;16.27;;;;;;;;;;4948702;28;21407;-65
2022/04/22 05:42:01;;;;;;;185.10;29.73;;;;;;;;;;4956004;28;20199;-65
2022/04/22 05:44:27;;;;;;;80.07;12.27;;;;;;;;;;4959089;28;20230;-65
2022/04/22 05:46:53;;;;;;;63.33;10.23;;;;;;;;;;4965611;28;20632;-63
2022/04/22 05:49:19;;;;;;;112.30;17.17;;;;;;;;;;4956087;28;20249;-64
2022/04/22 05:51:45;;;;;;;154.63;23.03;;;;;;;;;;4933422;28;20313;-65
2022/04/22 05:54:11;;;;;;;140.47;21.30;;;;;;;;;;4941560;28;20631;-65
2022/04/22 05:56:36;;;;;;;88.13;13.40;;;;;;;;;;4955152;28;20219;-64
2022/04/22 05:59:03;;;;;;;82.13;13.33;;;;;;;;;;4963709;28;20248;-64
2022/04/22 06:01:29;;;;;;;98.80;14.97;;;;;;;;;;4949946;28;20230;-65
2022/04/22 06:03:55;;;;;;;115.00;17.87;;;;;;;;;;4951760;28;20229;-68
2022/04/22 06:06:21;;;;;;;91.47;14.30;;;;;;;;;;4952132;28;20289;-69
2022/04/22 06:11:32;;;;;;;270.30;41.57;;;;;;;;;;4952708;28;20960;-66
2022/04/22 06:13:58;;;;;;;183.17;30.67;;;;;;;;;;4934839;28;20214;-64
2022/04/22 06:16:24;;;;;;;58.53;9.70;;;;;;;;;;4954379;28;20221;-63
2022/04/22 06:18:50;;;;;;;59.23;9.70;;;;;;;;;;4959482;28;20592;-64
2022/04/22 06:21:16;;;;;;;94.87;15.00;;;;;;;;;;4956855;28;20210;-63
2022/04/22 06:23:42;;;;;;;107.67;16.63;;;;;;;;;;4959058;28;20241;-64
2022/04/22 06:26:08;;;;;;;111.83;18.07;;;;;;;;;;4957924;28;20210;-65
2022/04/22 06:28:34;;;;;;;112.20;17.33;;;;;;;;;;4954777;28;21109;-63
2022/04/22 06:31:00;;;;;;;128.07;21.23;;;;;;;;;;4953217;28;20519;-66
2022/04/22 06:33:26;;;;;;;99.43;15.40;;;;;;;;;;4937425;28;20196;-67
2022/04/22 06:35:53;;;;;;;239.77;36.80;;;;;;;;;;4948015;28;20269;-65
2022/04/22 06:38:19;;;;;;;112.40;17.83;;;;;;;;;;4947031;28;20222;-65
2022/04/22 06:46:16;;;;;;;73.33;11.90;;;;;;;;;;4955458;28;20229;-62
2022/04/22 06:48:43;;;;;;;120.13;19.60;;;;;;;;;;4955553;28;20564;-61
2022/04/22 06:51:10;;;;;;;123.83;19.80;;;;;;;;;;4956706;28;20211;-66
2022/04/22 06:53:36;;;;;;;80.73;13.27;;;;;;;;;;4960329;28;20212;-66
2022/04/22 06:56:03;;;;;;;139.70;23.13;;;;;;;;;;4950593;28;20301;-65
2022/04/22 06:58:33;;;;;;;57.10;9.73;;;;;;;;;;4960337;28;20321;-65
2022/04/22 07:00:59;;;;;;;145.20;23.83;;;;;;;;;;4956320;28;20654;-65
2022/04/22 07:03:25;;;;;;;57.73;9.93;;;;;;;;;;4967440;28;20836;-66
2022/04/22 07:05:52;;;;;;;116.50;19.23;;;;;;;;;;4960993;28;20197;-64
2022/04/22 07:08:19;;;;;;;117.00;20.87;;;;;;;;;;4942780;28;20225;-65
2022/04/22 07:10:46;;;;;;;97.47;18.00;;;;;;;;;;4943692;28;20633;-65
2022/04/22 07:13:12;;;;;;;170.57;31.50;;;;;;;;;;4959710;28;21120;-65
2022/04/22 07:15:41;;;;;;;184.00;34.97;;;;;;;;;;4954435;28;20198;-65
2022/04/22 07:18:08;;;;;;;228.47;46.00;;;;;;;;;;4959144;28;20190;-65
2022/04/22 07:20:34;;;;;;;119.80;21.70;;;;;;;;;;4950403;28;20232;-65
2022/04/22 07:23:00;;;;;;;119.73;22.87;;;;;;;;;;4948276;28;20218;-65
2022/04/22 07:25:26;;;;;;;105.33;20.13;;;;;;;;;;4936324;28;20325;-65
2022/04/22 07:27:53;;;;;;;74.10;14.13;;;;;;;;;;4954247;28;20222;-67
2022/04/22 07:30:22;;;;;;;93.60;18.20;;;;;;;;;;4955341;28;20198;-66
2022/04/22 07:32:49;;;;;;;63.20;13.17;;;;;;;;;;4944148;28;20213;-66
2022/04/22 07:35:19;;;;;;;82.33;16.80;;;;;;;;;;4938581;28;20693;-66
2022/04/22 07:37:46;;;;;;;225.70;44.47;;;;;;;;;;4945040;28;20736;-66
2022/04/22 07:40:13;;;;;;;108.70;22.23;;;;;;;;;;4953869;28;20226;-66
2022/04/22 07:42:42;;;;;;;87.30;17.87;;;;;;;;;;4959022;28;20287;-66
2022/04/22 07:47:53;;;;;;;70.40;14.47;;;;;;;;;;4958268;28;20221;-64
2022/04/22 07:50:19;;;;;;;150.00;29.47;;;;;;;;;;4947855;28;20226;-67
2022/04/22 07:52:46;;;;;;;119.37;24.03;;;;;;;;;;4950962;28;20207;-66
2022/04/22 07:55:15;;;;;;;194.60;39.57;;;;;;;;;;4955178;28;20711;-65
2022/04/22 07:57:41;;;;;;;169.53;38.93;;;;;;;;;;4944449;28;20200;-66
2022/04/22 08:00:08;;;;;;;97.73;26.63;;;;;;;;;;4951169;28;20240;-66
2022/04/22 08:02:34;;;;;;;106.37;26.07;;;;;;;;;;4950318;28;20226;-66
2022/04/22 08:05:00;;;;;;;155.07;41.83;;;;;;;;;;4956104;28;20664;-66
2022/04/22 08:07:26;;;;;;;77.43;20.93;;;;;;;;;;4954085;28;20265;-66
2022/04/22 08:09:52;;;;;;;100.87;27.87;;;;;;;;;;4953884;28;20237;-66
2022/04/22 08:12:19;;;;;;;148.30;42.03;;;;;;;;;;4954283;28;20198;-66
2022/04/22 08:14:45;;;;;;;83.23;40.17;;;;;;;;;;4948968;28;20313;-66
2022/04/22 08:17:12;;;;;;;180.70;108.90;;;;;;;;;;4947999;28;20219;-66
2022/04/22 08:19:39;;;;;;;160.83;99.00;;;;;;;;;;4956016;28;20218;-67
2022/04/22 08:22:05;;;;;;;306.77;159.40;;;;;;;;;;4953411;28;20259;-66
2022/04/22 08:24:31;;;;;;;213.70;90.03;;;;;;;;;;4950532;28;20222;-66
2022/04/22 08:26:58;;;;;;;113.37;23.00;;;;;;;;;;4956899;28;20184;-66
2022/04/22 08:29:24;;;;;;;67.43;13.33;;;;;;;;;;4961423;28;20317;-66
2022/04/22 08:31:52;;;;;;;182.93;30.40;;;;;;;;;;4944912;28;20261;-66
2022/04/22 08:34:18;;;;;;;69.70;12.97;;;;;;;;;;4956450;28;20325;-66
2022/04/22 08:36:45;;;;;;;75.43;14.45;;;;;;;;;;4956533;28;20265;-66
2022/04/22 08:39:11;;;;;;;185.37;33.03;;;;;;;;;;4938571;28;20182;-67
2022/04/22 08:41:38;;;;;;;67.03;12.45;;;;;;;;;;4951911;28;20218;-66
2022/04/22 08:44:05;;;;;;;106.40;21.03;;;;;;;;;;4956138;28;20656;-66
2022/04/22 08:52:01;;;;;;;149.27;29.60;;;;;;;;;;4951603;28;20221;-66
2022/04/22 08:54:28;;;;;;;78.28;14.57;;;;;;;;;;4961423;28;20257;-65
2022/04/22 08:56:55;;;;;;;275.27;52.53;;;;;;;;;;4948647;28;20185;-66
2022/04/22 08:59:21;;;;;;;174.77;32.57;;;;;;;;;;4950256;28;20309;-66
2022/04/22 09:01:48;;;;;;;192.25;33.35;;;;;;;;;;4945047;28;20245;-65
2022/04/22 09:04:14;;;;;;;198.00;34.80;;;;;;;;;;4936512;28;20229;-67
2022/04/22 09:06:41;;;;;;;83.83;15.80;;;;;;;;;;4947007;28;20258;-66
2022/04/22 09:09:07;;;;;;;84.40;15.43;;;;;;;;;;4957757;28;20182;-66
2022/04/22 09:11:54;;;;;;;57.53;10.95;;;;;;;;;;4951990;28;20225;-66
2022/04/22 09:14:23;;;;;;;110.70;19.38;;;;;;;;;;4937914;28;20214;-66
2022/04/22 09:16:51;;;;;;;82.67;15.03;;;;;;;;;;4946199;28;20207;-66
2022/04/22 09:19:18;;;;;;;116.77;20.20;;;;;;;;;;4953772;28;20218;-66
2022/04/22 09:21:55;;;;;;;107.87;19.30;;;;;;;;;;4949040;28;20257;-67
2022/04/22 09:24:21;;;;;;;163.00;27.23;;;;;;;;;;4957821;28;20680;-66
2022/04/22 09:26:47;;;;;;;65.67;12.03;;;;;;;;;;4955257;28;20265;-66
2022/04/22 09:29:12;;;;;;;66.53;12.23;;;;;;;;;;4927543;28;20226;-66
2022/04/22 09:31:49;;;;;;;133.73;24.37;;;;;;;;;;4953384;28;20225;-66
2022/04/22 09:34:16;;;;;;;67.77;12.57;;;;;;;;;;4952993;28;20213;-65
2022/04/22 09:45:01;;;;;;;103.13;20.27;;;;;;;;;;4949475;28;20300;-66
2022/04/22 09:47:28;;;;;;;143.27;26.80;;;;;;;;;;4953069;28;20726;-65
2022/04/22 09:49:54;;;;;;;109.40;21.10;;;;;;;;;;4953711;28;20223;-67
2022/04/22 09:52:30;;;;;;;123.13;22.17;;;;;;;;;;4934199;28;20214;-69
2022/04/22 09:54:56;;;;;;;138.73;26.67;;;;;;;;;;4950064;28;20312;-68
2022/04/22 09:57:22;;;;;;;89.13;16.03;;;;;;;;;;4943877;28;20186;-70
2022/04/22 09:59:48;;;;;;;150.83;27.53;;;;;;;;;;4940695;28;20233;-66
2022/04/22 10:02:21;;;;;;;105.10;19.53;;;;;;;;;;4944063;28;20214;-67
2022/04/22 10:04:47;;;;;;;50.63;10.47;;;;;;;;;;4932951;28;20218;-72
2022/04/22 10:07:13;;;;;;;110.07;21.50;;;;;;;;;;4941474;28;20218;-65
2022/04/22 10:09:40;;;;;;;169.27;32.23;;;;;;;;;;4945212;28;20197;-65
2022/04/22 10:12:09;;;;;;;171.13;33.37;;;;;;;;;;4947211;28;20195;-62
2022/04/22 10:14:40;;;;;;;144.23;27.23;;;;;;;;;;4949854;28;20214;-64
2022/04/22 10:17:07;;;;;;;132.23;25.17;;;;;;;;;;4949931;28;20214;-63
2022/04/22 10:19:34;;;;;;;104.87;19.27;;;;;;;;;;4955719;28;20228;-64
2022/04/22 10:22:03;;;;;;;197.63;34.87;;;;;;;;;;4945840;28;20214;-64
2022/04/22 10:24:31;;;;;;;143.25;26.30;;;;;;;;;;4948567;28;20214;-64
2022/04/22 10:26:58;;;;;;;111.83;21.13;;;;;;;;;;4936830;28;20174;-63
2022/04/22 10:29:24;;;;;;;125.93;21.57;;;;;;;;;;4958849;28;20300;-62
2022/04/22 10:31:51;;;;;;;82.77;14.53;;;;;;;;;;4960477;28;20561;-62
2022/04/22 10:34:17;;;;;;;117.50;21.00;;;;;;;;;;4954597;28;20302;-63
2022/04/22 10:36:43;;;;;;;103.23;19.00;;;;;;;;;;4950730;28;20186;-64
2022/04/22 10:39:10;;;;;;;83.63;15.53;;;;;;;;;;4958912;28;20175;-64
2022/04/22 10:41:46;;;;;;;160.93;27.77;;;;;;;;;;4944786;28;20245;-64
2022/04/22 10:47:15;;;;;;;77.60;14.83;;;;;;;;;;4957459;28;20770;-64
2022/04/22 10:49:43;;;;;;;113.60;20.13;;;;;;;;;;4962551;28;20214;-65
2022/04/22 10:52:19;;;;;;;175.73;30.20;;;;;;;;;;4941921;28;20438;-63
2022/04/22 10:54:54;;;;;;;102.40;17.90;;;;;;;;;;4950083;28;20563;-63
2022/04/22 10:57:24;;;;;;;53.10;9.73;;;;;;;;;;4957041;28;20182;-65
2022/04/22 11:00:09;;;;;;;63.03;11.97;;;;;;;;;;4941808;28;20246;-65
2022/04/22 11:02:36;;;;;;;52.43;10.17;;;;;;;;;;4959742;28;20257;-63
2022/04/22 11:05:20;;;;;;;142.10;25.47;;;;;;;;;;4953833;28;20305;-63
2022/04/22 11:07:56;;;;;;;106.97;19.30;;;;;;;;;;4946339;28;20869;-65
2022/04/22 11:10:23;;;;;;;117.40;20.50;;;;;;;;;;4948824;28;20236;-66
2022/04/22 11:12:56;;;;;;;123.83;22.37;;;;;;;;;;4958934;28;20627;-65
2022/04/22 11:15:40;;;;;;;83.33;15.20;;;;;;;;;;4956285;28;20190;-64
2022/04/22 11:18:08;;;;;;;112.33;20.93;;;;;;;;;;4958095;28;20230;-63
2022/04/22 11:20:35;;;;;;;117.33;22.00;;;;;;;;;;4939638;28;20250;-64
2022/04/22 11:23:01;;;;;;;101.53;19.33;;;;;;;;;;4957050;28;20218;-64
2022/04/22 11:25:29;;;;;;;98.33;18.73;;;;;;;;;;4959215;28;20215;-63
2022/04/22 11:27:56;;;;;;;134.47;26.07;;;;;;;;;;4951502;28;20225;-65
2022/04/22 11:30:22;;;;;;;75.90;15.75;;;;;;;;;;4954079;28;20226;-65
2022/04/22 11:32:49;;;;;;;69.13;13.63;;;;;;;;;;4960971;28;20217;-64
2022/04/22 11:35:19;;;;;;;113.17;22.63;;;;;;;;;;4941577;28;20245;-64
2022/04/22 11:37:45;;;;;;;132.43;24.50;;;;;;;;;;4957066;28;20222;-65
2022/04/22 11:40:18;;;;;;;157.87;32.00;;;;;;;;;;4954293;28;20245;-65
2022/04/22 11:42:44;;;;;;;116.80;22.73;;;;;;;;;;4953501;28;20190;-64
2022/04/22 11:45:15;;;;;;;152.60;30.90;;;;;;;;;;4933211;28;20205;-67
2022/04/22 11:47:41;;;;;;;134.07;25.60;;;;;;;;;;4952971;28;21466;-67
2022/04/22 11:50:07;;;;;;;112.23;22.17;;;;;;;;;;4938300;28;20222;-67
2022/04/22 11:52:33;;;;;;;100.20;18.17;;;;;;;;;;4949886;28;20222;-67
2022/04/22 11:55:00;;;;;;;130.70;26.53;;;;;;;;;;4940750;28;20222;-69
2022/04/22 11:57:26;;;;;;;130.10;24.27;;;;;;;;;;4948543;28;20269;-68
2022/04/22 12:05:37;;;;;;;124.20;21.33;;;;;;;;;;4950196;28;20245;-67
2022/04/22 12:08:07;;;;;;;103.77;17.90;;;;;;;;;;4962150;28;20222;-68
2022/04/22 12:10:34;;;;;;;414.70;82.70;;;;;;;;;;4952752;28;20222;-69
2022/04/22 12:13:03;;;;;;;84.67;15.30;;;;;;;;;;4936805;28;20210;-68
2022/04/22 12:15:29;;;;;;;102.13;18.30;;;;;;;;;;4952331;28;20221;-66
2022/04/22 12:17:56;;;;;;;125.73;22.17;;;;;;;;;;4958405;28;20262;-66
2022/04/22 12:20:25;;;;;;;156.10;26.30;;;;;;;;;;4950729;28;20346;-66
2022/04/22 12:22:52;;;;;;;126.23;22.00;;;;;;;;;;4957196;28;20249;-67
2022/04/22 12:25:20;;;;;;;68.63;12.53;;;;;;;;;;4956480;28;20735;-66
2022/04/22 12:28:06;;;;;;;91.13;16.73;;;;;;;;;;4945913;28;20218;-66
2022/04/22 12:30:36;;;;;;;71.90;13.57;;;;;;;;;;4957197;28;20564;-66
2022/04/22 12:33:02;;;;;;;143.82;29.42;;;;;;;;;;4955170;28;20209;-66
2022/04/22 12:35:28;;;;;;;101.60;24.15;;;;;;;;;;4943094;28;20245;-66
2022/04/22 12:37:56;;;;;;;80.28;24.73;;;;;;;;;;4959313;28;20210;-66
2022/04/22 12:40:22;;;;;;;129.23;85.13;;;;;;;;;;4953295;28;20641;-67
2022/04/22 12:42:51;;;;;;;125.47;90.80;;;;;;;;;;4950475;28;20253;-67
2022/04/22 12:53:49;;;;;;;83.95;52.85;;;;;;;;;;4954048;28;20225;-65
2022/04/22 12:56:16;;;;;;;141.45;70.63;;;;;;;;;;4956092;28;20218;-64
2022/04/22 12:58:55;;;;;;;150.60;66.28;;;;;;;;;;4955821;28;20222;-62
2022/04/22 13:01:22;;;;;;;141.23;60.78;;;;;;;;;;4950645;28;20241;-62
2022/04/22 13:03:49;;;;;;;172.68;76.20;;;;;;;;;;4948949;28;20827;-65
2022/04/22 13:06:34;;;;;;;106.70;51.25;;;;;;;;;;4940285;28;20197;-67
2022/04/22 13:09:00;;;;;;;155.27;67.97;;;;;;;;;;4951576;28;20695;-66
2022/04/22 13:11:26;;;;;;;109.28;44.97;;;;;;;;;;4956125;28;20230;-67
2022/04/22 13:13:52;;;;;;;101.55;40.33;;;;;;;;;;4930484;28;20220;-66
2022/04/22 13:16:18;;;;;;;131.15;51.33;;;;;;;;;;4953357;28;20206;-65
2022/04/22 13:18:44;;;;;;;96.07;41.72;;;;;;;;;;4959398;28;20193;-64
2022/04/22 13:21:10;;;;;;;197.48;70.60;;;;;;;;;;4958730;28;20963;-64
2022/04/22 13:23:36;;;;;;;124.43;89.57;;;;;;;;;;4954771;28;20223;-64
2022/04/22 13:26:02;;;;;;;170.30;118.90;;;;;;;;;;4941701;28;20229;-64
2022/04/22 13:28:28;;;;;;;153.80;107.03;;;;;;;;;;4957989;28;20206;-65
2022/04/22 13:30:54;;;;;;;199.55;121.25;;;;;;;;;;4953669;28;20226;-64
2022/04/22 13:33:20;;;;;;;147.75;82.72;;;;;;;;;;4952484;28;20676;-64
2022/04/22 13:35:46;;;;;;;127.18;74.18;;;;;;;;;;4938339;28;20222;-64
2022/04/22 13:38:12;;;;;;;133.93;61.63;;;;;;;;;;4960698;28;20224;-64
2022/04/22 13:40:38;;;;;;;100.60;46.63;;;;;;;;;;4940126;28;20226;-64
2022/04/22 13:43:04;;;;;;;136.95;64.78;;;;;;;;;;4954767;28;20580;-64
2022/04/22 13:53:45;;;;;;;150.73;79.20;;;;;;;;;;4958354;28;20811;-65
2022/04/22 13:56:11;;;;;;;151.60;68.15;;;;;;;;;;4957805;28;21049;-64
2022/04/22 13:58:38;;;;;;;100.28;43.63;;;;;;;;;;4941849;28;20233;-64
2022/04/22 14:01:04;;;;;;;167.23;65.35;;;;;;;;;;4949119;28;20230;-63
2022/04/22 14:03:31;;;;;;;126.55;45.45;;;;;;;;;;4953389;28;20933;-64
2022/04/22 14:05:57;;;;;;;189.90;70.40;;;;;;;;;;4948671;28;20273;-66
2022/04/22 14:08:23;;;;;;;138.23;49.08;;;;;;;;;;4952737;28;20248;-66
2022/04/22 14:10:49;;;;;;;129.60;44.72;;;;;;;;;;4948240;28;20222;-65
2022/04/22 14:13:14;;;;;;;192.25;60.92;;;;;;;;;;4948490;28;20226;-65
2022/04/22 14:15:41;;;;;;;115.90;39.95;;;;;;;;;;4945097;28;20221;-65
2022/04/22 14:18:07;;;;;;;217.57;87.38;;;;;;;;;;4956885;28;20197;-65
2022/04/22 14:20:33;;;;;;;199.43;65.93;;;;;;;;;;4954409;28;20234;-66
2022/04/22 14:22:59;;;;;;;253.35;91.57;;;;;;;;;;4949089;28;20233;-65
2022/04/22 14:25:25;;;;;;;101.63;39.20;;;;;;;;;;4948285;28;20209;-66
2022/04/22 14:27:51;;;;;;;130.38;64.97;;;;;;;;;;4956270;28;20237;-65
2022/04/22 14:30:17;;;;;;;196.05;88.05;;;;;;;;;;4950711;28;20301;-66
2022/04/22 14:32:43;;;;;;;135.02;68.82;;;;;;;;;;4953789;28;20207;-65
2022/04/22 14:35:09;;;;;;;207.18;86.35;;;;;;;;;;4958239;28;20223;-66
2022/04/22 14:37:35;;;;;;;193.27;102.55;;;;;;;;;;4950148;28;20214;-66
2022/04/22 14:40:01;;;;;;;132.38;50.80;;;;;;;;;;4951159;28;20309;-65
2022/04/22 14:42:28;;;;;;;137.52;64.40;;;;;;;;;;4961877;28;20178;-66
2022/04/22 14:44:54;;;;;;;120.65;66.10;;;;;;;;;;4948979;28;20225;-65
2022/04/22 14:47:20;;;;;;;196.05;105.07;;;;;;;;;;4930771;28;20206;-66
2022/04/22 14:49:49;;;;;;;113.50;61.65;;;;;;;;;;4951461;28;20316;-66
2022/04/22 14:52:15;;;;;;;163.30;91.68;;;;;;;;;;4956131;28;20961;-65
2022/04/22 14:54:41;;;;;;;113.28;66.78;;;;;;;;;;4953370;28;20188;-65
2022/04/22 14:57:07;;;;;;;218.70;110.15;;;;;;;;;;4949123;28;20218;-64
2022/04/22 14:59:34;;;;;;;108.35;67.30;;;;;;;;;;4950604;28;20222;-64
2022/04/22 15:02:00;;;;;;;177.10;95.63;;;;;;;;;;4957873;28;20214;-66
2022/04/22 15:04:26;;;;;;;135.27;76.97;;;;;;;;;;4956848;28;20596;-66
2022/04/22 15:06:52;;;;;;;115.75;40.42;;;;;;;;;;4951830;28;20231;-66
2022/04/22 15:09:18;;;;;;;249.05;109.35;;;;;;;;;;4947242;28;20315;-66
2022/04/22 15:11:44;;;;;;;110.07;35.13;;;;;;;;;;4957895;28;20245;-65
2022/04/22 15:14:10;;;;;;;187.95;59.75;;;;;;;;;;4950096;28;20210;-65
2022/04/22 15:16:37;;;;;;;86.57;48.23;;;;;;;;;;4938507;28;20225;-66
2022/04/22 15:24:33;;;;;;;144.63;44.28;;;;;;;;;;4952113;28;20325;-66
2022/04/22 15:27:01;;;;;;;213.80;62.87;;;;;;;;;;4957971;28;20275;-65
2022/04/22 15:29:27;;;;;;;132.63;38.17;;;;;;;;;;4958284;28;20218;-65
2022/04/22 15:31:53;;;;;;;169.33;55.37;;;;;;;;;;4949381;28;20561;-65
2022/04/22 15:34:19;;;;;;;93.37;62.57;;;;;;;;;;4955694;28;20821;-63
2022/04/22 15:36:48;;;;;;;94.30;70.85;;;;;;;;;;4956255;28;20190;-62